createdAt,value
2023-01-22T00:00:35.487Z,11.35
2023-01-22T00:03:01.722Z,10.80
2023-01-22T00:05:27.913Z,12.55
2023-01-22T00:07:54.123Z,11.73
2023-01-22T00:10:20.592Z,11.52
2023-01-22T00:12:46.830Z,12.50
2023-01-22T00:15:13.139Z,11.80
2023-01-22T00:17:39.327Z,12.35
2023-01-22T00:20:06.539Z,11.93
2023-01-22T00:22:32.733Z,11.80
2023-01-22T00:24:59.093Z,12.77
2023-01-22T00:27:25.278Z,12.65
2023-01-22T00:29:51.505Z,11.13
2023-01-22T00:32:17.808Z,11.98
2023-01-22T00:34:50.497Z,11.30
2023-01-22T00:37:16.716Z,13.00
2023-01-22T00:39:42.899Z,11.93
2023-01-22T00:42:09.078Z,11.40
2023-01-22T00:44:35.310Z,11.55
2023-01-22T00:47:01.574Z,11.40
2023-01-22T00:49:27.741Z,12.20
2023-01-22T00:51:53.975Z,11.68
2023-01-22T00:54:20.174Z,11.40
2023-01-22T00:56:46.350Z,11.75
2023-01-22T00:59:12.628Z,11.55
2023-01-22T01:01:39.252Z,13.20
2023-01-22T01:04:05.644Z,11.32
2023-01-22T01:06:31.944Z,10.88
2023-01-22T01:08:58.175Z,12.82
2023-01-22T01:11:25.968Z,12.38
2023-01-22T01:13:52.453Z,12.07
2023-01-22T01:16:20.728Z,12.50
2023-01-22T01:18:48.040Z,11.80
2023-01-22T01:21:14.491Z,13.13
2023-01-22T01:23:42.541Z,12.80
2023-01-22T01:26:11.687Z,12.40
2023-01-22T01:28:38.417Z,11.68
2023-01-22T01:31:05.622Z,11.50
2023-01-22T01:33:32.113Z,11.07
2023-01-22T01:35:59.110Z,12.95
2023-01-22T01:38:25.334Z,11.68
2023-01-22T01:40:51.626Z,11.65
2023-01-22T01:43:17.954Z,11.35
2023-01-22T01:45:44.403Z,10.52
2023-01-22T01:48:29.470Z,11.70
2023-01-22T01:51:14.620Z,10.50
2023-01-22T01:53:41.822Z,10.88
2023-01-22T01:56:14.728Z,9.57
2023-01-22T01:58:42.586Z,11.25
2023-01-22T02:01:11.457Z,10.23
2023-01-22T02:03:39.068Z,10.75
2023-01-22T02:06:05.419Z,10.38
2023-01-22T02:08:31.876Z,10.85
2023-01-22T02:10:58.315Z,10.90
2023-01-22T02:13:26.982Z,9.35
2023-01-22T02:15:53.657Z,9.82
2023-01-22T02:18:19.877Z,9.93
2023-01-22T02:21:12.460Z,10.32
2023-01-22T02:23:38.687Z,8.95
2023-01-22T02:26:04.898Z,10.18
2023-01-22T02:28:31.102Z,9.98
2023-01-22T02:30:57.376Z,9.25
2023-01-22T02:33:23.686Z,10.07
2023-01-22T02:35:49.878Z,10.45
2023-01-22T02:38:16.149Z,8.98
2023-01-22T02:40:48.950Z,9.85
2023-01-22T02:43:15.330Z,10.07
2023-01-22T02:45:41.790Z,10.15
2023-01-22T02:48:08.023Z,10.38
2023-01-22T02:50:34.222Z,10.02
2023-01-22T02:53:00.475Z,9.55
2023-01-22T02:55:26.669Z,9.52
2023-01-22T02:57:52.850Z,9.35
2023-01-22T03:00:19.433Z,8.98
2023-01-22T03:02:45.816Z,10.40
2023-01-22T03:05:11.986Z,8.88
2023-01-22T03:07:45.024Z,8.95
2023-01-22T03:10:13.058Z,8.27
2023-01-22T03:12:57.795Z,8.43
2023-01-22T03:15:42.795Z,9.25
2023-01-22T03:18:27.603Z,7.53
2023-01-22T03:21:12.364Z,8.65
2023-01-22T03:23:38.780Z,8.73
2023-01-22T03:26:05.696Z,7.93
2023-01-22T03:28:31.918Z,8.27
2023-01-22T03:30:58.653Z,7.65
2023-01-22T03:33:24.908Z,8.02
2023-01-22T03:35:51.172Z,6.32
2023-01-22T03:38:17.376Z,7.47
2023-01-22T03:40:43.628Z,8.13
2023-01-22T03:43:09.887Z,8.63
2023-01-22T03:45:36.263Z,6.45
2023-01-22T03:48:02.493Z,6.95
2023-01-22T03:50:28.784Z,8.90
2023-01-22T03:52:57.576Z,8.38
2023-01-22T03:55:25.276Z,7.32
2023-01-22T03:57:51.484Z,7.30
2023-01-22T04:00:18.573Z,7.90
2023-01-22T04:02:44.930Z,8.13
2023-01-22T04:05:11.181Z,7.40
2023-01-22T04:07:37.477Z,7.70
2023-01-22T04:10:03.761Z,8.63
2023-01-22T04:12:29.944Z,8.27
2023-01-22T04:14:56.173Z,7.50
2023-01-22T04:17:22.410Z,8.05
2023-01-22T04:19:48.594Z,8.13
2023-01-22T04:22:15.050Z,6.63
2023-01-22T04:24:41.271Z,6.90
2023-01-22T04:27:07.437Z,7.53
2023-01-22T04:29:33.694Z,7.70
2023-01-22T04:31:59.881Z,7.75
2023-01-22T04:34:26.089Z,8.40
2023-01-22T04:36:52.288Z,6.78
2023-01-22T04:39:18.462Z,6.70
2023-01-22T04:41:44.662Z,6.80
2023-01-22T04:44:11.041Z,6.45
2023-01-22T04:46:37.290Z,5.97
2023-01-22T04:49:03.581Z,6.55
2023-01-22T04:51:29.798Z,6.70
2023-01-22T04:53:55.988Z,6.30
2023-01-22T04:56:22.259Z,6.38
2023-01-22T04:58:49.509Z,6.60
2023-01-22T05:01:15.756Z,6.63
2023-01-22T05:03:42.016Z,6.10
2023-01-22T05:06:08.375Z,6.90
2023-01-22T05:08:34.633Z,5.93
2023-01-22T05:11:01.865Z,4.45
2023-01-22T05:13:28.932Z,5.13
2023-01-22T05:15:55.266Z,6.03
2023-01-22T05:18:21.574Z,5.78
2023-01-22T05:20:47.797Z,5.80
2023-01-22T05:23:13.993Z,5.22
2023-01-22T05:25:40.210Z,5.20
2023-01-22T05:28:06.504Z,5.65
2023-01-22T05:30:32.755Z,5.28
2023-01-22T05:32:59.156Z,5.10
2023-01-22T05:35:25.476Z,5.15
2023-01-22T05:37:51.726Z,5.85
2023-01-22T05:40:18.240Z,5.93
2023-01-22T05:42:44.639Z,5.68
2023-01-22T05:45:11.135Z,5.35
2023-01-22T05:47:37.340Z,5.88
2023-01-22T05:50:03.712Z,5.22
2023-01-22T05:52:29.909Z,5.38
2023-01-22T05:54:56.105Z,4.78
2023-01-22T05:57:22.348Z,5.32
2023-01-22T05:59:48.624Z,5.93
2023-01-22T06:02:14.931Z,5.78
2023-01-22T06:04:41.136Z,5.60
2023-01-22T06:07:07.335Z,6.05
2023-01-22T06:09:33.555Z,6.22
2023-01-22T06:11:59.766Z,6.32
2023-01-22T06:14:25.989Z,5.32
2023-01-22T06:16:52.220Z,6.20
2023-01-22T06:19:18.458Z,6.05
2023-01-22T06:21:44.642Z,6.07
2023-01-22T06:24:11.024Z,6.10
2023-01-22T06:26:37.236Z,7.05
2023-01-22T06:29:03.604Z,7.68
2023-01-22T06:31:31.301Z,7.05
2023-01-22T06:33:57.794Z,7.07
2023-01-22T06:36:24.001Z,8.02
2023-01-22T06:38:50.223Z,7.03
2023-01-22T06:41:16.477Z,6.53
2023-01-22T06:43:42.711Z,7.47
2023-01-22T06:46:09.012Z,7.10
2023-01-22T06:48:35.351Z,5.72
2023-01-22T06:51:01.713Z,6.22
2023-01-22T06:53:27.959Z,6.47
2023-01-22T06:55:54.889Z,6.63
2023-01-22T06:58:21.286Z,6.10
2023-01-22T07:00:47.505Z,5.65
2023-01-22T07:03:13.728Z,6.07
2023-01-22T07:05:39.973Z,5.72
2023-01-22T07:08:06.222Z,5.50
2023-01-22T07:10:32.531Z,6.18
2023-01-22T07:13:04.033Z,6.25
2023-01-22T07:15:30.603Z,5.70
2023-01-22T07:17:56.791Z,6.28
2023-01-22T07:20:23.504Z,5.85
2023-01-22T07:22:50.303Z,6.03
2023-01-22T07:25:16.535Z,5.22
2023-01-22T07:27:42.798Z,5.88
2023-01-22T07:30:09.344Z,6.40
2023-01-22T07:32:35.736Z,6.68
2023-01-22T07:35:02.077Z,6.65
2023-01-22T07:37:28.357Z,6.47
2023-01-22T07:39:54.561Z,6.60
2023-01-22T07:42:20.744Z,5.93
2023-01-22T07:44:46.947Z,6.43
2023-01-22T07:47:13.137Z,6.35
2023-01-22T07:49:39.397Z,5.68
2023-01-22T07:52:05.630Z,5.75
2023-01-22T07:54:36.045Z,6.22
2023-01-22T07:57:03.199Z,5.88
2023-01-22T07:59:29.540Z,6.45
2023-01-22T08:01:55.837Z,6.55
2023-01-22T08:04:22.063Z,6.13
2023-01-22T08:06:48.262Z,6.55
2023-01-22T08:09:21.458Z,5.32
2023-01-22T08:11:47.667Z,5.40
2023-01-22T08:14:14.383Z,6.25
2023-01-22T08:16:40.625Z,5.65
2023-01-22T08:19:06.858Z,5.50
2023-01-22T08:21:33.104Z,5.70
2023-01-22T08:23:59.314Z,4.90
2023-01-22T08:26:25.539Z,5.00
2023-01-22T08:28:51.815Z,5.63
2023-01-22T08:31:27.491Z,3.78
2023-01-22T08:33:54.678Z,5.45
2023-01-22T08:36:20.948Z,4.70
2023-01-22T08:38:47.170Z,5.80
2023-01-22T08:41:13.407Z,5.55
2023-01-22T08:43:39.597Z,5.65
2023-01-22T08:46:05.875Z,5.25
2023-01-22T08:48:32.084Z,5.10
2023-01-22T08:51:01.788Z,5.38
2023-01-22T08:53:28.333Z,5.93
2023-01-22T08:55:54.527Z,5.22
2023-01-22T08:58:22.030Z,5.85
2023-01-22T09:00:48.642Z,5.32
2023-01-22T09:03:14.892Z,5.68
2023-01-22T09:05:41.160Z,6.00
2023-01-22T09:08:08.049Z,4.93
2023-01-22T09:10:34.424Z,5.65
2023-01-22T09:13:00.701Z,4.78
2023-01-22T09:15:27.585Z,5.32
2023-01-22T09:17:53.904Z,5.57
2023-01-22T09:20:20.566Z,5.30
2023-01-22T09:22:47.737Z,4.85
2023-01-22T09:25:14.474Z,4.32
2023-01-22T09:27:40.716Z,5.28
2023-01-22T09:30:09.394Z,5.40
2023-01-22T09:32:35.874Z,5.22
2023-01-22T09:35:02.087Z,5.60
2023-01-22T09:37:28.286Z,5.78
2023-01-22T09:39:54.488Z,4.72
2023-01-22T09:42:22.705Z,5.35
2023-01-22T09:44:51.267Z,5.15
2023-01-22T09:47:38.886Z,4.90
2023-01-22T09:50:14.301Z,4.47
2023-01-22T09:52:40.744Z,4.65
2023-01-22T09:55:14.244Z,4.97
2023-01-22T09:57:44.045Z,4.90
2023-01-22T10:00:18.213Z,5.07
2023-01-22T10:02:54.023Z,4.90
2023-01-22T10:05:21.328Z,4.65
2023-01-22T10:07:52.139Z,5.22
2023-01-22T10:10:20.547Z,4.50
2023-01-22T10:12:51.077Z,5.78
2023-01-22T10:15:19.657Z,4.47
2023-01-22T10:17:46.397Z,4.53
2023-01-22T10:20:13.893Z,4.70
2023-01-22T10:22:40.108Z,4.90
2023-01-22T10:25:12.422Z,4.65
2023-01-22T10:27:39.430Z,5.28
2023-01-22T10:30:17.205Z,4.57
2023-01-22T10:32:43.551Z,3.65
2023-01-22T10:35:21.828Z,5.15
2023-01-22T10:37:49.783Z,4.80
2023-01-22T10:40:32.916Z,4.85
2023-01-22T10:43:19.400Z,4.53
2023-01-22T10:45:56.136Z,4.68
2023-01-22T10:48:22.655Z,4.88
2023-01-22T10:51:18.472Z,4.50
2023-01-22T10:53:49.899Z,4.93
2023-01-22T10:56:24.964Z,4.85
2023-01-22T10:58:51.342Z,4.82
2023-01-22T11:01:30.052Z,5.55
2023-01-22T11:03:56.389Z,4.25
2023-01-22T11:06:26.170Z,4.63
2023-01-22T11:09:33.401Z,3.92
2023-01-22T11:12:04.221Z,4.82
2023-01-22T11:14:35.014Z,4.78
2023-01-22T11:17:04.858Z,4.88
2023-01-22T11:19:37.726Z,4.88
2023-01-22T11:22:06.183Z,4.90
2023-01-22T11:24:37.528Z,3.63
2023-01-22T11:27:28.896Z,5.22
2023-01-22T11:30:03.972Z,4.72
2023-01-22T11:32:42.600Z,4.78
2023-01-22T11:35:24.651Z,4.85
2023-01-22T11:38:01.408Z,4.95
2023-01-22T11:40:29.590Z,4.82
2023-01-22T11:43:01.981Z,5.32
2023-01-22T11:45:50.331Z,5.80
2023-01-22T11:48:28.839Z,6.80
2023-01-22T11:51:13.941Z,5.70
2023-01-22T11:53:59.260Z,5.07
2023-01-22T11:56:58.229Z,4.65
2023-01-22T11:59:43.795Z,4.80
2023-01-22T12:02:13.318Z,5.47
2023-01-22T12:04:59.844Z,4.68
2023-01-22T12:07:49.536Z,4.90
2023-01-22T12:10:41.003Z,4.82
2023-01-22T12:13:07.183Z,5.07
2023-01-22T12:15:39.440Z,4.88
2023-01-22T12:18:18.734Z,4.65
2023-01-22T12:21:05.842Z,5.18
2023-01-22T12:23:34.723Z,5.15
2023-01-22T12:26:06.324Z,5.35
2023-01-22T12:28:38.762Z,5.22
2023-01-22T12:31:05.152Z,5.28
2023-01-22T12:33:34.760Z,5.30
2023-01-22T12:36:02.075Z,5.70
2023-01-22T12:38:36.255Z,5.32
2023-01-22T12:41:05.564Z,4.70
2023-01-22T12:43:46.604Z,5.82
2023-01-22T12:46:45.300Z,5.47
2023-01-22T12:49:16.190Z,5.75
2023-01-22T12:51:42.369Z,5.57
2023-01-22T12:54:09.697Z,5.55
2023-01-22T12:56:35.950Z,5.65
2023-01-22T12:59:02.224Z,6.05
2023-01-22T13:01:35.729Z,5.35
2023-01-22T13:04:03.452Z,5.55
2023-01-22T13:06:31.800Z,5.70
2023-01-22T13:08:58.105Z,5.53
2023-01-22T13:11:27.489Z,5.78
2023-01-22T13:14:03.183Z,5.68
2023-01-22T13:16:37.621Z,5.30
2023-01-22T13:19:30.791Z,6.22
2023-01-22T13:21:58.502Z,7.05
2023-01-22T13:24:24.782Z,6.38
2023-01-22T13:26:59.864Z,5.70
2023-01-22T13:29:28.537Z,5.53
2023-01-22T13:31:55.802Z,6.80
2023-01-22T13:34:22.100Z,6.55
2023-01-22T13:36:49.249Z,6.10
2023-01-22T13:39:19.960Z,5.97
2023-01-22T13:41:48.105Z,5.78
2023-01-22T13:44:17.433Z,6.47
2023-01-22T13:46:43.674Z,6.15
2023-01-22T13:49:14.288Z,6.05
2023-01-22T13:51:40.861Z,6.22
2023-01-22T13:54:08.116Z,5.88
2023-01-22T13:56:34.350Z,5.88
2023-01-22T13:59:04.925Z,6.03
2023-01-22T14:01:32.624Z,6.13
2023-01-22T14:04:06.697Z,6.85
2023-01-22T14:06:47.242Z,6.70
2023-01-22T14:09:13.476Z,5.82
2023-01-22T14:11:40.693Z,5.63
2023-01-22T14:14:25.103Z,6.22
2023-01-22T14:16:51.742Z,6.60
2023-01-22T14:19:18.016Z,6.93
2023-01-22T14:21:44.217Z,6.88
2023-01-22T14:24:10.584Z,5.68
2023-01-22T14:26:36.972Z,6.10
2023-01-22T14:29:03.327Z,6.40
2023-01-22T14:31:29.664Z,6.85
2023-01-22T14:33:55.908Z,6.55
2023-01-22T14:36:22.133Z,6.53
2023-01-22T14:38:49.435Z,6.75
2023-01-22T14:41:15.648Z,5.57
2023-01-22T14:43:42.040Z,7.50
2023-01-22T14:46:08.531Z,6.65
2023-01-22T14:48:34.817Z,6.32
2023-01-22T14:51:01.188Z,6.90
2023-01-22T14:53:30.109Z,7.05
2023-01-22T14:55:56.309Z,5.70
2023-01-22T14:58:22.580Z,6.15
2023-01-22T15:00:48.848Z,6.80
2023-01-22T15:03:15.052Z,7.20
2023-01-22T15:05:41.253Z,8.02
2023-01-22T15:08:07.505Z,7.03
2023-01-22T15:10:33.746Z,6.88
2023-01-22T15:12:59.999Z,7.38
2023-01-22T15:15:28.233Z,5.43
2023-01-22T15:17:55.253Z,6.95
2023-01-22T15:20:21.596Z,6.38
2023-01-22T15:22:49.464Z,6.78
2023-01-22T15:25:15.948Z,6.65
2023-01-22T15:27:42.215Z,6.57
2023-01-22T15:30:08.764Z,6.90
2023-01-22T15:32:34.981Z,6.63
2023-01-22T15:35:01.211Z,7.47
2023-01-22T15:37:27.441Z,7.28
2023-01-22T15:39:53.660Z,6.88
2023-01-22T15:42:20.066Z,8.43
2023-01-22T15:44:46.378Z,7.03
2023-01-22T15:47:14.268Z,8.63
2023-01-22T15:49:40.567Z,7.80
2023-01-22T15:52:06.800Z,7.93
2023-01-22T15:54:33.080Z,7.47
2023-01-22T15:56:59.279Z,7.20
2023-01-22T15:59:25.485Z,7.80
2023-01-22T16:01:52.385Z,7.60
2023-01-22T16:04:18.686Z,7.80
2023-01-22T16:06:44.929Z,7.35
2023-01-22T16:09:11.131Z,6.70
2023-01-22T16:11:37.453Z,6.63
2023-01-22T16:14:03.701Z,6.75
2023-01-22T16:16:31.388Z,7.53
2023-01-22T16:18:58.809Z,7.70
2023-01-22T16:21:25.654Z,6.93
2023-01-22T16:23:52.800Z,6.45
2023-01-22T16:26:20.610Z,7.00
2023-01-22T16:28:48.973Z,7.20
2023-01-22T16:31:17.095Z,7.90
2023-01-22T16:33:44.428Z,8.18
2023-01-22T16:36:12.363Z,7.35
2023-01-22T16:38:39.137Z,8.63
2023-01-22T16:41:24.112Z,6.82
2023-01-22T16:43:52.812Z,6.70
2023-01-22T16:46:20.802Z,7.38
2023-01-22T16:48:47.057Z,8.20
2023-01-22T16:51:17.378Z,7.90
2023-01-22T16:53:44.184Z,7.30
2023-01-22T16:56:10.402Z,8.82
2023-01-22T16:58:36.894Z,7.97
2023-01-22T17:01:04.373Z,7.20
2023-01-22T17:03:30.817Z,8.63
2023-01-22T17:05:57.266Z,8.80
2023-01-22T17:08:23.797Z,7.50
2023-01-22T17:10:50.536Z,9.27
2023-01-22T17:13:16.893Z,8.23
2023-01-22T17:15:45.675Z,7.53
2023-01-22T17:18:11.892Z,8.05
2023-01-22T17:20:38.131Z,7.65
2023-01-22T17:23:04.381Z,7.47
2023-01-22T17:25:30.607Z,9.20
2023-01-22T17:27:56.813Z,7.43
2023-01-22T17:30:23.030Z,7.88
2023-01-22T17:32:49.341Z,8.35
2023-01-22T17:35:15.563Z,7.45
2023-01-22T17:37:42.138Z,8.40
2023-01-22T17:40:09.384Z,8.02
2023-01-22T17:42:35.739Z,7.50
2023-01-22T17:45:02.283Z,7.13
2023-01-22T17:47:28.540Z,8.57
2023-01-22T17:49:55.623Z,8.18
2023-01-22T17:52:23.367Z,7.57
2023-01-22T17:54:49.799Z,7.75
2023-01-22T17:57:16.021Z,7.50
2023-01-22T17:59:42.270Z,8.35
2023-01-22T18:02:09.644Z,7.75
2023-01-22T18:04:37.063Z,7.60
2023-01-22T18:07:04.045Z,8.00
2023-01-22T18:09:30.705Z,8.88
2023-01-22T18:11:58.415Z,8.07
2023-01-22T18:14:28.187Z,7.50
2023-01-22T18:16:54.479Z,8.75
2023-01-22T18:19:23.172Z,8.15
2023-01-22T18:21:49.713Z,7.82
2023-01-22T18:24:16.185Z,9.45
2023-01-22T18:26:42.632Z,9.48
2023-01-22T18:29:09.881Z,10.15
2023-01-22T18:31:36.283Z,9.27
2023-01-22T18:34:04.109Z,8.43
2023-01-22T18:36:31.959Z,9.20
2023-01-22T18:38:58.842Z,9.02
2023-01-22T18:41:25.760Z,9.60
2023-01-22T18:44:01.676Z,7.88
2023-01-22T18:46:29.863Z,7.45
2023-01-22T18:49:00.122Z,7.55
2023-01-22T18:51:26.537Z,7.82
2023-01-22T18:53:52.934Z,7.47
2023-01-22T18:56:19.146Z,7.90
2023-01-22T18:58:46.132Z,8.43
2023-01-22T19:01:17.102Z,8.27
2023-01-22T19:03:44.754Z,7.50
2023-01-22T19:06:14.004Z,7.47
2023-01-22T19:08:45.664Z,7.85
2023-01-22T19:11:12.874Z,7.70
2023-01-22T19:13:39.620Z,8.55
2023-01-22T19:16:06.945Z,9.25
2023-01-22T19:18:33.310Z,8.23
2023-01-22T19:21:07.023Z,8.73
2023-01-22T19:23:34.389Z,7.80
2023-01-22T19:26:04.806Z,8.57
2023-01-22T19:28:30.997Z,8.73
2023-01-22T19:30:57.305Z,7.97
2023-01-22T19:33:27.586Z,9.85
2023-01-22T19:35:54.666Z,9.63
2023-01-22T19:38:21.423Z,8.27
2023-01-22T19:40:47.891Z,8.93
2023-01-22T19:43:14.499Z,8.70
2023-01-22T19:45:40.709Z,9.23
2023-01-22T19:48:06.975Z,8.32
2023-01-22T19:50:33.667Z,8.70
2023-01-22T19:53:00.181Z,8.23
2023-01-22T19:55:26.470Z,9.27
2023-01-22T19:57:55.067Z,9.70
2023-01-22T20:00:22.013Z,8.02
2023-01-22T20:02:48.360Z,9.43
2023-01-22T20:05:16.576Z,8.40
2023-01-22T20:07:44.488Z,7.90
2023-01-22T20:10:11.356Z,8.85
2023-01-22T20:12:37.664Z,8.43
2023-01-22T20:15:04.053Z,8.93
2023-01-22T20:17:30.283Z,9.40
2023-01-22T20:19:56.525Z,8.93
2023-01-22T20:22:22.735Z,8.20
2023-01-22T20:24:48.961Z,8.55
2023-01-22T20:27:15.255Z,9.10
2023-01-22T20:29:41.536Z,9.35
2023-01-22T20:32:07.804Z,9.55
2023-01-22T20:34:34.151Z,9.98
2023-01-22T20:37:00.460Z,10.38
2023-01-22T20:39:26.660Z,9.25
2023-01-22T20:41:53.543Z,10.25
2023-01-22T20:44:20.247Z,8.90
2023-01-22T20:46:48.582Z,9.80
2023-01-22T20:49:14.861Z,9.80
2023-01-22T20:51:42.166Z,10.68
2023-01-22T20:54:08.431Z,11.05
2023-01-22T20:56:35.400Z,10.20
2023-01-22T20:59:06.086Z,11.77
2023-01-22T21:01:32.593Z,10.40
2023-01-22T21:03:59.075Z,9.75
2023-01-22T21:06:27.192Z,10.73
2023-01-22T21:08:55.905Z,10.60
2023-01-22T21:11:22.455Z,9.55
2023-01-22T21:13:50.011Z,9.80
2023-01-22T21:16:18.984Z,9.45
2023-01-22T21:18:46.159Z,9.88
2023-01-22T21:21:13.603Z,10.05
2023-01-22T21:23:39.835Z,9.48
2023-01-22T21:26:07.466Z,8.23
2023-01-22T21:28:33.776Z,9.55
2023-01-22T21:31:07.111Z,8.05
2023-01-22T21:33:33.432Z,9.73
2023-01-22T21:35:59.629Z,9.00
2023-01-22T21:38:25.838Z,8.02
2023-01-22T21:40:52.434Z,9.45
2023-01-22T21:43:37.123Z,8.55
2023-01-22T21:46:22.031Z,8.43
2023-01-22T21:48:49.021Z,8.65
2023-01-22T21:51:15.300Z,8.27
2023-01-22T21:53:41.535Z,8.55
2023-01-22T21:56:07.765Z,7.93
2023-01-22T21:58:34.351Z,8.75
2023-01-22T22:01:06.929Z,9.05
2023-01-22T22:03:34.887Z,9.20
2023-01-22T22:06:02.340Z,8.30
2023-01-22T22:08:28.804Z,8.80
2023-01-22T22:10:55.024Z,8.10
2023-01-22T22:13:21.351Z,8.15
2023-01-22T22:15:47.539Z,8.63
2023-01-22T22:18:13.770Z,8.40
2023-01-22T22:20:39.986Z,9.25
2023-01-22T22:23:06.405Z,8.55
2023-01-22T22:25:32.957Z,8.43
2023-01-22T22:28:00.301Z,8.48
2023-01-22T22:30:26.827Z,9.15
2023-01-22T22:32:54.567Z,8.95
2023-01-22T22:35:21.157Z,8.05
2023-01-22T22:37:47.384Z,7.97
2023-01-22T22:40:13.598Z,8.95
2023-01-22T22:42:39.782Z,8.18
2023-01-22T22:45:06.242Z,8.68
2023-01-22T22:47:35.252Z,9.32
2023-01-22T22:50:01.564Z,9.40
2023-01-22T22:52:27.860Z,9.45
2023-01-22T22:54:54.141Z,9.00
2023-01-22T22:57:20.347Z,9.15
2023-01-22T22:59:46.585Z,9.18
2023-01-22T23:02:12.806Z,8.95
2023-01-22T23:04:39.052Z,9.20
2023-01-22T23:07:05.322Z,10.18
2023-01-22T23:09:31.527Z,9.00
2023-01-22T23:12:01.559Z,8.38
2023-01-22T23:14:27.755Z,8.98
2023-01-22T23:16:54.040Z,9.00
2023-01-22T23:19:21.959Z,8.95
2023-01-22T23:21:55.119Z,9.07
2023-01-22T23:24:21.447Z,8.25
2023-01-22T23:26:48.179Z,8.35
2023-01-22T23:29:16.348Z,9.65
2023-01-22T23:31:42.680Z,8.90
2023-01-22T23:34:11.304Z,8.77
2023-01-22T23:36:38.626Z,8.45
2023-01-22T23:39:04.876Z,8.80
2023-01-22T23:41:31.141Z,8.77
2023-01-22T23:43:58.307Z,9.07
2023-01-22T23:46:28.572Z,9.27
2023-01-22T23:48:55.726Z,8.07
2023-01-22T23:51:22.002Z,8.20
2023-01-22T23:53:51.446Z,9.95
2023-01-22T23:56:18.164Z,9.20
2023-01-22T23:58:44.409Z,9.00
